createdAt,value
2022-12-11T00:02:09.753Z,17.73
2022-12-11T00:04:39.062Z,12.90
2022-12-11T00:07:08.426Z,16.92
2022-12-11T00:09:39.532Z,15.65
2022-12-11T00:12:09.549Z,12.75
2022-12-11T00:14:38.914Z,11.80
2022-12-11T00:17:08.201Z,9.82
2022-12-11T00:19:37.628Z,11.95
2022-12-11T00:22:06.990Z,17.02
2022-12-11T00:24:36.534Z,16.17
2022-12-11T00:27:08.145Z,15.18
2022-12-11T00:29:37.581Z,11.15
2022-12-11T00:32:07.299Z,15.45
2022-12-11T00:34:36.831Z,10.85
2022-12-11T00:37:06.279Z,15.35
2022-12-11T00:39:35.539Z,9.45
2022-12-11T00:42:06.655Z,9.25
2022-12-11T00:44:36.232Z,15.32
2022-12-11T00:47:06.235Z,13.82
2022-12-11T00:50:57.189Z,11.55
2022-12-11T00:53:26.809Z,15.57
2022-12-11T00:55:56.303Z,11.65
2022-12-11T00:58:25.939Z,15.50
2022-12-11T01:00:55.547Z,16.33
2022-12-11T01:03:25.020Z,15.23
2022-12-11T01:05:56.872Z,12.10
2022-12-11T01:08:26.268Z,10.52
2022-12-11T01:11:05.350Z,17.67
2022-12-11T01:13:35.352Z,12.65
2022-12-11T01:16:10.627Z,17.60
2022-12-11T01:18:40.362Z,14.95
2022-12-11T01:21:15.168Z,17.65
2022-12-11T01:23:45.209Z,15.68
2022-12-11T01:26:16.909Z,18.50
2022-12-11T01:28:47.170Z,16.48
2022-12-11T01:31:18.633Z,19.20
2022-12-11T01:33:48.085Z,17.30
2022-12-11T01:36:22.169Z,15.25
2022-12-11T01:38:53.771Z,27.52
2022-12-11T01:41:23.713Z,15.57
2022-12-11T01:44:06.885Z,12.05
2022-12-11T01:46:38.027Z,15.73
2022-12-11T01:49:11.832Z,13.57
2022-12-11T01:51:47.364Z,13.45
2022-12-11T01:54:21.102Z,10.23
2022-12-11T01:56:54.930Z,7.75
2022-12-11T01:59:28.888Z,8.77
2022-12-11T02:02:05.334Z,10.52
2022-12-11T02:04:38.212Z,14.10
2022-12-11T02:07:08.906Z,13.00
2022-12-11T02:09:40.680Z,10.07
2022-12-11T02:12:20.908Z,15.97
2022-12-11T02:15:01.314Z,11.55
2022-12-11T02:17:40.421Z,11.52
2022-12-11T02:20:17.680Z,11.75
2022-12-11T02:23:18.470Z,10.60
2022-12-11T02:26:04.202Z,9.85
2022-12-11T02:28:39.131Z,11.77
2022-12-11T02:31:16.083Z,9.85
2022-12-11T02:33:55.393Z,8.50
2022-12-11T02:36:28.214Z,9.30
2022-12-11T02:39:01.283Z,6.75
2022-12-11T02:41:32.134Z,7.28
2022-12-11T02:44:05.675Z,6.95
2022-12-11T02:46:37.209Z,8.00
2022-12-11T02:49:10.164Z,9.32
2022-12-11T02:51:43.640Z,7.85
2022-12-11T02:54:20.887Z,7.10
2022-12-11T02:56:58.762Z,10.32
2022-12-11T02:59:38.750Z,3.92
2022-12-11T03:02:08.791Z,4.20
2022-12-11T03:04:39.188Z,8.35
2022-12-11T03:07:14.029Z,11.10
2022-12-11T03:09:46.274Z,4.30
2022-12-11T03:12:20.769Z,9.45
2022-12-11T03:14:52.582Z,6.68
2022-12-11T03:17:25.843Z,9.53
2022-12-11T03:20:07.604Z,10.48
2022-12-11T03:22:42.586Z,13.27
2022-12-11T03:25:17.670Z,7.05
2022-12-11T03:27:54.949Z,7.18
2022-12-11T03:30:27.667Z,6.45
2022-12-11T03:33:04.791Z,6.07
2022-12-11T03:35:38.924Z,11.63
2022-12-11T03:38:12.328Z,7.25
2022-12-11T03:40:45.961Z,9.27
2022-12-11T03:43:16.671Z,7.30
2022-12-11T03:45:50.447Z,5.88
2022-12-11T03:48:21.154Z,8.80
2022-12-11T03:51:59.325Z,4.15
2022-12-11T03:54:30.054Z,7.53
2022-12-11T03:57:02.812Z,6.38
2022-12-11T03:59:32.329Z,4.88
2022-12-11T04:02:01.785Z,7.22
2022-12-11T04:04:31.270Z,5.07
2022-12-11T04:07:02.036Z,4.38
2022-12-11T04:09:31.364Z,6.05
2022-12-11T04:12:00.808Z,7.60
2022-12-11T04:14:48.692Z,9.10
2022-12-11T04:17:38.471Z,6.78
2022-12-11T04:20:26.630Z,6.63
2022-12-11T04:23:14.906Z,3.72
2022-12-11T04:25:44.285Z,7.72
2022-12-11T04:28:13.748Z,4.97
2022-12-11T04:30:43.171Z,7.05
2022-12-11T04:33:12.663Z,4.55
2022-12-11T04:35:41.970Z,6.38
2022-12-11T04:38:12.686Z,10.50
2022-12-11T04:40:42.342Z,5.35
2022-12-11T04:43:11.540Z,9.00
2022-12-11T04:45:40.929Z,6.07
2022-12-11T04:48:10.208Z,8.43
2022-12-11T04:50:39.626Z,7.30
2022-12-11T04:53:08.887Z,5.95
2022-12-11T04:55:41.790Z,3.78
2022-12-11T04:58:11.128Z,5.75
2022-12-11T05:00:41.626Z,5.72
2022-12-11T05:03:11.362Z,6.00
2022-12-11T05:05:41.289Z,4.85
2022-12-11T05:08:10.504Z,5.20
2022-12-11T05:10:44.523Z,4.80
2022-12-11T05:13:17.963Z,7.78
2022-12-11T05:15:47.428Z,6.50
2022-12-11T05:18:16.900Z,5.75
2022-12-11T05:20:46.229Z,4.90
2022-12-11T05:23:15.469Z,5.72
2022-12-11T05:25:52.596Z,5.60
2022-12-11T05:28:22.080Z,4.22
2022-12-11T05:30:56.012Z,4.93
2022-12-11T05:33:25.530Z,5.25
2022-12-11T05:35:54.954Z,7.63
2022-12-11T05:38:24.809Z,10.13
2022-12-11T05:41:03.823Z,9.30
2022-12-11T05:43:37.152Z,5.80
2022-12-11T05:46:12.685Z,5.03
2022-12-11T05:48:43.249Z,7.45
2022-12-11T05:51:13.468Z,9.85
2022-12-11T05:53:44.701Z,18.17
2022-12-11T05:56:18.060Z,14.90
2022-12-11T05:58:48.201Z,8.32
2022-12-11T06:01:20.998Z,8.65
2022-12-11T06:03:50.650Z,8.70
2022-12-11T06:06:20.155Z,5.47
2022-12-11T06:08:52.527Z,9.27
2022-12-11T06:11:24.583Z,5.65
2022-12-11T06:13:54.630Z,8.50
2022-12-11T06:16:25.357Z,10.65
2022-12-11T06:18:58.355Z,7.95
2022-12-11T06:21:30.120Z,9.40
2022-12-11T06:24:02.509Z,20.05
2022-12-11T06:26:33.826Z,9.90
2022-12-11T06:29:05.260Z,9.98
2022-12-11T06:31:38.493Z,12.30
2022-12-11T06:34:07.811Z,8.88
2022-12-11T06:36:37.169Z,9.73
2022-12-11T06:39:06.759Z,14.63
2022-12-11T06:41:37.808Z,19.58
2022-12-11T06:44:07.271Z,18.60
2022-12-11T06:46:36.525Z,16.23
2022-12-11T06:51:57.232Z,6.75
2022-12-11T06:54:28.388Z,13.95
2022-12-11T06:56:57.710Z,13.55
2022-12-11T06:59:27.069Z,6.70
2022-12-11T07:01:56.446Z,5.20
2022-12-11T07:04:27.643Z,3.63
2022-12-11T07:06:58.704Z,3.78
2022-12-11T07:09:27.989Z,4.55
2022-12-11T07:11:57.466Z,11.18
2022-12-11T07:14:26.937Z,9.23
2022-12-11T07:16:56.290Z,6.93
2022-12-11T07:19:25.921Z,6.53
2022-12-11T07:21:56.887Z,10.07
2022-12-11T07:24:26.422Z,8.80
2022-12-11T07:26:55.699Z,5.78
2022-12-11T07:29:25.111Z,8.85
2022-12-11T07:31:54.611Z,8.13
2022-12-11T07:34:24.029Z,8.07
2022-12-11T07:36:53.344Z,7.72
2022-12-11T07:39:24.216Z,6.68
2022-12-11T07:41:53.804Z,10.38
2022-12-11T07:44:23.504Z,10.15
2022-12-11T07:46:52.909Z,9.32
2022-12-11T07:49:22.270Z,8.02
2022-12-11T07:51:51.712Z,12.60
2022-12-11T07:54:22.469Z,7.78
2022-12-11T07:56:53.967Z,10.63
2022-12-11T07:59:23.501Z,36.60
2022-12-11T08:01:53.088Z,5.55
2022-12-11T08:04:22.467Z,9.02
2022-12-11T08:06:51.852Z,12.55
2022-12-11T08:09:23.509Z,6.68
2022-12-11T08:11:53.684Z,4.68
2022-12-11T08:14:23.287Z,7.68
2022-12-11T08:16:52.662Z,6.30
2022-12-11T08:19:22.206Z,5.47
2022-12-11T08:21:51.530Z,5.13
2022-12-11T08:24:22.370Z,3.83
2022-12-11T08:26:51.721Z,3.40
2022-12-11T08:29:21.053Z,6.50
2022-12-11T08:31:50.301Z,5.90
2022-12-11T08:34:19.601Z,7.63
2022-12-11T08:36:48.970Z,7.82
2022-12-11T08:39:18.266Z,4.55
2022-12-11T08:41:48.983Z,5.78
2022-12-11T08:44:18.243Z,4.63
2022-12-11T08:46:48.591Z,6.85
2022-12-11T08:49:17.986Z,7.15
2022-12-11T08:51:47.295Z,8.13
2022-12-11T08:54:16.669Z,5.47
2022-12-11T08:56:47.447Z,5.30
2022-12-11T08:59:16.848Z,5.18
2022-12-11T09:01:46.135Z,3.10
2022-12-11T09:04:15.728Z,6.97
2022-12-11T09:06:45.148Z,3.78
2022-12-11T09:09:14.948Z,5.93
2022-12-11T09:11:44.656Z,3.17
2022-12-11T09:14:16.286Z,5.95
2022-12-11T09:16:47.178Z,6.70
2022-12-11T09:19:18.045Z,6.07
2022-12-11T09:21:47.729Z,4.57
2022-12-11T09:24:17.404Z,5.47
2022-12-11T09:26:47.462Z,4.85
2022-12-11T09:29:18.380Z,4.40
2022-12-11T09:31:49.331Z,6.82
2022-12-11T09:34:18.653Z,7.07
2022-12-11T09:36:47.982Z,5.35
2022-12-11T09:39:18.948Z,6.47
2022-12-11T09:41:57.284Z,6.40
2022-12-11T09:44:43.721Z,5.57
2022-12-11T09:47:33.688Z,4.50
2022-12-11T09:52:12.735Z,7.80
2022-12-11T09:54:49.868Z,2.13
2022-12-11T09:57:36.089Z,4.10
2022-12-11T10:00:22.095Z,5.40
2022-12-11T10:03:35.829Z,5.55
2022-12-11T10:06:17.170Z,4.13
2022-12-11T10:09:02.507Z,3.78
2022-12-11T10:12:00.347Z,4.13
2022-12-11T10:14:45.684Z,2.70
2022-12-11T10:17:21.781Z,2.53
2022-12-11T10:19:52.296Z,2.40
2022-12-11T10:22:27.765Z,3.97
2022-12-11T10:25:16.572Z,3.22
2022-12-11T10:27:46.703Z,5.47
2022-12-11T10:30:20.812Z,2.00
2022-12-11T10:32:56.053Z,1.80
2022-12-11T10:35:38.849Z,6.68
2022-12-11T10:38:16.897Z,5.03
2022-12-11T10:40:51.595Z,5.28
2022-12-11T10:43:21.135Z,6.80
2022-12-11T10:45:55.837Z,5.53
2022-12-11T10:48:25.878Z,5.45
2022-12-11T10:51:02.371Z,5.05
2022-12-11T10:53:33.628Z,3.20
2022-12-11T10:56:05.023Z,4.32
2022-12-11T10:58:36.129Z,5.05
2022-12-11T11:01:11.995Z,6.65
2022-12-11T11:03:57.258Z,6.70
2022-12-11T11:06:28.413Z,8.45
2022-12-11T11:09:00.423Z,4.93
2022-12-11T11:11:35.219Z,3.92
2022-12-11T11:14:15.109Z,3.85
2022-12-11T11:16:47.168Z,5.45
2022-12-11T11:19:28.908Z,5.32
2022-12-11T11:22:02.522Z,6.15
2022-12-11T11:24:36.912Z,5.22
2022-12-11T11:27:15.943Z,10.75
2022-12-11T11:29:51.573Z,12.25
2022-12-11T11:32:29.473Z,13.63
2022-12-11T11:35:24.756Z,10.15
2022-12-11T11:38:08.031Z,4.57
2022-12-11T11:40:43.910Z,3.88
2022-12-11T11:43:22.853Z,4.85
2022-12-11T11:45:59.228Z,6.07
2022-12-11T11:48:39.201Z,6.10
2022-12-11T11:51:17.818Z,5.82
2022-12-11T11:53:52.633Z,4.35
2022-12-11T11:56:25.367Z,7.20
2022-12-11T11:59:13.017Z,4.28
2022-12-11T12:01:43.993Z,9.82
2022-12-11T12:04:14.906Z,7.85
2022-12-11T12:07:15.850Z,6.35
2022-12-11T12:09:55.703Z,2.83
2022-12-11T12:12:37.606Z,4.88
2022-12-11T12:15:35.171Z,6.57
2022-12-11T12:18:14.080Z,5.25
2022-12-11T12:20:52.550Z,8.05
2022-12-11T12:23:46.326Z,7.03
2022-12-11T12:26:25.752Z,7.95
2022-12-11T12:29:08.086Z,4.85
2022-12-11T12:32:03.600Z,2.30
2022-12-11T12:34:54.208Z,5.25
2022-12-11T12:37:45.921Z,3.30
2022-12-11T12:40:28.388Z,7.20
2022-12-11T12:43:07.722Z,3.30
2022-12-11T12:45:45.939Z,5.82
2022-12-11T12:48:16.691Z,5.53
2022-12-11T12:51:58.082Z,5.10
2022-12-11T12:54:31.561Z,4.60
2022-12-11T12:57:04.554Z,5.93
2022-12-11T12:59:34.291Z,5.97
2022-12-11T13:02:06.849Z,4.53
2022-12-11T13:04:58.461Z,7.93
2022-12-11T13:07:32.931Z,9.83
2022-12-11T13:10:23.266Z,13.00
2022-12-11T13:12:52.801Z,13.93
2022-12-11T13:15:37.665Z,10.07
2022-12-11T13:18:33.705Z,9.27
2022-12-11T13:21:04.668Z,8.13
2022-12-11T13:23:40.481Z,10.00
2022-12-11T13:26:12.079Z,8.75
2022-12-11T13:28:52.022Z,6.90
2022-12-11T13:31:36.539Z,8.40
2022-12-11T13:34:17.811Z,5.32
2022-12-11T13:36:52.464Z,10.20
2022-12-11T13:39:27.693Z,4.63
2022-12-11T13:42:01.762Z,10.52
2022-12-11T13:44:38.408Z,6.97
2022-12-11T13:47:14.999Z,5.60
2022-12-11T13:49:48.008Z,4.65
2022-12-11T13:52:21.308Z,5.95
2022-12-11T13:54:55.727Z,5.72
2022-12-11T13:57:28.644Z,12.60
2022-12-11T14:00:00.869Z,7.10
2022-12-11T14:02:33.870Z,10.23
2022-12-11T14:05:06.560Z,7.95
2022-12-11T14:07:42.132Z,11.90
2022-12-11T14:10:21.267Z,11.13
2022-12-11T14:12:56.914Z,10.60
2022-12-11T14:15:27.173Z,9.05
2022-12-11T14:17:57.584Z,10.98
2022-12-11T14:20:30.512Z,9.43
2022-12-11T14:23:08.038Z,6.22
2022-12-11T14:25:38.830Z,10.48
2022-12-11T14:28:18.309Z,11.85
2022-12-11T14:30:52.508Z,6.28
2022-12-11T14:33:24.950Z,10.02
2022-12-11T14:38:29.317Z,16.67
2022-12-11T14:41:07.355Z,13.13
2022-12-11T14:43:44.366Z,8.88
2022-12-11T14:46:19.791Z,9.85
2022-12-11T14:49:00.445Z,13.40
2022-12-11T14:51:36.850Z,20.70
2022-12-11T14:54:07.008Z,14.13
2022-12-11T14:56:37.982Z,8.63
2022-12-11T14:59:19.523Z,11.88
2022-12-11T15:02:00.869Z,13.63
2022-12-11T15:04:33.039Z,11.88
2022-12-11T15:07:02.909Z,14.07
2022-12-11T15:09:40.969Z,9.20
2022-12-11T15:12:16.138Z,10.95
2022-12-11T15:14:51.778Z,10.35
2022-12-11T15:17:22.230Z,8.38
2022-12-11T15:19:54.610Z,11.52
2022-12-11T15:22:26.416Z,8.00
2022-12-11T15:24:57.024Z,9.93
2022-12-11T15:27:35.761Z,5.35
2022-12-11T15:30:26.898Z,7.13
2022-12-11T15:33:22.298Z,4.13
2022-12-11T15:36:04.309Z,2.65
2022-12-11T15:38:39.790Z,4.03
2022-12-11T15:41:16.302Z,3.67
2022-12-11T15:43:47.650Z,5.78
2022-12-11T15:46:18.196Z,4.25
2022-12-11T15:51:57.041Z,6.45
2022-12-11T15:54:26.349Z,5.20
2022-12-11T15:56:55.759Z,4.72
2022-12-11T15:59:25.494Z,4.60
2022-12-11T16:01:54.942Z,7.05
2022-12-11T16:04:24.328Z,14.18
2022-12-11T16:06:55.521Z,16.77
2022-12-11T16:09:24.905Z,8.07
2022-12-11T16:11:54.166Z,3.45
2022-12-11T16:14:23.459Z,5.65
2022-12-11T16:16:52.949Z,3.60
2022-12-11T16:19:22.337Z,7.85
2022-12-11T16:21:51.578Z,7.03
2022-12-11T16:24:22.910Z,7.72
2022-12-11T16:26:52.174Z,5.95
2022-12-11T16:29:22.459Z,5.78
2022-12-11T16:31:51.845Z,2.83
2022-12-11T16:34:21.189Z,3.25
2022-12-11T16:36:50.970Z,4.70
2022-12-11T16:39:21.888Z,5.40
2022-12-11T16:41:51.283Z,4.47
2022-12-11T16:44:22.329Z,3.20
2022-12-11T16:46:52.388Z,3.05
2022-12-11T16:49:22.898Z,4.25
2022-12-11T16:51:52.612Z,3.63
2022-12-11T16:54:23.457Z,6.97
2022-12-11T16:56:52.721Z,4.18
2022-12-11T16:59:22.049Z,4.10
2022-12-11T17:01:51.990Z,5.95
2022-12-11T17:04:21.409Z,4.15
2022-12-11T17:06:50.594Z,2.50
2022-12-11T17:09:21.483Z,4.78
2022-12-11T17:11:50.852Z,4.82
2022-12-11T17:14:20.442Z,4.63
2022-12-11T17:16:49.895Z,4.88
2022-12-11T17:19:19.871Z,9.95
2022-12-11T17:21:51.813Z,11.68
2022-12-11T17:24:22.949Z,5.28
2022-12-11T17:26:52.184Z,11.30
2022-12-11T17:29:22.786Z,4.90
2022-12-11T17:31:52.156Z,3.78
2022-12-11T17:34:21.605Z,3.58
2022-12-11T17:36:51.656Z,7.60
2022-12-11T17:39:22.543Z,11.77
2022-12-11T17:41:51.880Z,8.05
2022-12-11T17:44:21.170Z,8.52
2022-12-11T17:46:50.530Z,7.25
2022-12-11T17:49:20.031Z,7.43
2022-12-11T17:51:49.968Z,3.30
2022-12-11T17:54:19.360Z,10.90
2022-12-11T17:56:50.204Z,3.95
2022-12-11T17:59:20.882Z,2.83
2022-12-11T18:01:50.243Z,4.32
2022-12-11T18:04:19.662Z,6.97
2022-12-11T18:06:48.990Z,7.40
2022-12-11T18:09:18.269Z,7.78
2022-12-11T18:11:49.083Z,6.88
2022-12-11T18:14:18.823Z,4.68
2022-12-11T18:16:48.632Z,5.47
2022-12-11T18:19:19.727Z,5.55
2022-12-11T18:21:49.228Z,8.95
2022-12-11T18:24:18.711Z,4.28
2022-12-11T18:26:49.754Z,8.00
2022-12-11T18:29:19.068Z,15.40
2022-12-11T18:31:48.393Z,12.35
2022-12-11T18:34:17.748Z,4.03
2022-12-11T18:36:47.169Z,2.30
2022-12-11T18:39:16.480Z,3.67
2022-12-11T18:41:58.273Z,3.30
2022-12-11T18:44:34.591Z,3.90
2022-12-11T18:47:04.170Z,3.22
2022-12-11T18:51:56.847Z,3.75
2022-12-11T18:54:26.121Z,2.88
2022-12-11T18:56:55.585Z,1.48
2022-12-11T18:59:24.922Z,1.80
2022-12-11T19:01:54.416Z,1.80
2022-12-11T19:04:23.870Z,12.35
2022-12-11T19:06:53.290Z,2.08
2022-12-11T19:09:24.809Z,0.60
2022-12-11T19:11:54.209Z,0.82
2022-12-11T19:14:24.249Z,1.88
2022-12-11T19:16:53.634Z,1.58
2022-12-11T19:19:24.188Z,1.98
2022-12-11T19:21:53.488Z,1.85
2022-12-11T19:24:26.061Z,1.58
2022-12-11T19:26:55.449Z,1.40
2022-12-11T19:29:27.448Z,3.88
2022-12-11T19:31:57.748Z,3.93
2022-12-11T19:34:27.470Z,2.55
2022-12-11T19:36:57.249Z,2.35
2022-12-11T19:39:28.016Z,2.83
2022-12-11T19:41:57.629Z,4.28
2022-12-11T19:44:26.998Z,4.30
2022-12-11T19:46:56.312Z,4.25
2022-12-11T19:49:25.747Z,4.22
2022-12-11T19:51:55.808Z,1.80
2022-12-11T19:54:27.086Z,4.18
2022-12-11T19:56:56.653Z,5.15
2022-12-11T19:59:26.011Z,6.57
2022-12-11T20:01:55.573Z,3.47
2022-12-11T20:04:24.962Z,1.17
2022-12-11T20:06:54.348Z,1.52
2022-12-11T20:09:24.682Z,0.57
2022-12-11T20:11:55.541Z,0.90
2022-12-11T20:14:27.602Z,0.90
2022-12-11T20:17:14.960Z,0.88
2022-12-11T20:19:44.854Z,1.33
2022-12-11T20:22:14.200Z,1.92
2022-12-11T20:24:43.799Z,0.80
2022-12-11T20:27:14.826Z,0.85
2022-12-11T20:29:44.150Z,0.43
2022-12-11T20:32:13.983Z,0.80
2022-12-11T20:34:43.467Z,1.33
2022-12-11T20:37:12.845Z,2.95
2022-12-11T20:39:42.210Z,2.25
2022-12-11T20:42:13.707Z,2.30
2022-12-11T20:44:48.748Z,2.60
2022-12-11T20:47:20.889Z,7.00
2022-12-11T20:49:51.348Z,3.78
2022-12-11T20:52:21.500Z,3.85
2022-12-11T20:54:51.017Z,2.50
2022-12-11T20:57:21.851Z,1.83
2022-12-11T20:59:51.161Z,4.38
2022-12-11T21:02:20.563Z,3.40
2022-12-11T21:04:49.842Z,3.60
2022-12-11T21:07:19.830Z,3.50
2022-12-11T21:09:49.201Z,4.95
2022-12-11T21:12:18.538Z,5.07
2022-12-11T21:14:49.345Z,5.03
2022-12-11T21:17:18.596Z,6.45
2022-12-11T21:19:47.891Z,6.85
2022-12-11T21:22:17.256Z,4.18
2022-12-11T21:24:46.530Z,3.13
2022-12-11T21:27:16.137Z,4.88
2022-12-11T21:29:45.421Z,4.55
2022-12-11T21:32:16.233Z,6.28
2022-12-11T21:34:45.604Z,5.43
2022-12-11T21:37:15.048Z,4.82
2022-12-11T21:39:44.349Z,6.05
2022-12-11T21:42:13.647Z,6.63
2022-12-11T21:47:33.869Z,5.97
2022-12-11T21:51:56.670Z,5.13
2022-12-11T21:54:26.079Z,7.32
2022-12-11T21:56:55.594Z,4.03
2022-12-11T21:59:25.028Z,2.85
2022-12-11T22:01:54.530Z,5.40
2022-12-11T22:04:23.865Z,3.40
2022-12-11T22:06:53.622Z,4.95
2022-12-11T22:09:24.406Z,4.47
2022-12-11T22:11:58.191Z,4.88
2022-12-11T22:14:31.014Z,7.22
2022-12-11T22:17:00.475Z,7.07
2022-12-11T22:19:32.740Z,5.18
2022-12-11T22:22:02.511Z,7.25
2022-12-11T22:24:33.412Z,5.50
2022-12-11T22:27:02.641Z,4.97
2022-12-11T22:29:32.048Z,5.07
2022-12-11T22:32:01.531Z,2.75
2022-12-11T22:34:30.894Z,6.72
2022-12-11T22:37:00.174Z,6.22
2022-12-11T22:39:29.661Z,7.03
2022-12-11T22:42:00.650Z,4.00
2022-12-11T22:44:30.012Z,6.85
2022-12-11T22:46:59.307Z,4.68
2022-12-11T22:49:28.612Z,3.70
2022-12-11T22:51:58.696Z,7.07
2022-12-11T22:54:27.962Z,4.53
2022-12-11T22:56:58.664Z,5.88
2022-12-11T22:59:27.997Z,4.97
2022-12-11T23:01:57.630Z,6.03
2022-12-11T23:04:27.476Z,3.47
2022-12-11T23:06:56.783Z,5.03
2022-12-11T23:09:26.453Z,6.28
2022-12-11T23:11:58.630Z,10.82
2022-12-11T23:14:29.876Z,6.43
2022-12-11T23:16:59.324Z,6.15
2022-12-11T23:19:28.970Z,1.95
2022-12-11T23:21:58.342Z,6.35
2022-12-11T23:24:27.759Z,7.15
2022-12-11T23:26:57.088Z,3.60
2022-12-11T23:29:27.743Z,8.20
2022-12-11T23:31:57.021Z,18.95
2022-12-11T23:34:26.330Z,19.63
2022-12-11T23:36:55.609Z,17.30
2022-12-11T23:39:24.888Z,12.88
2022-12-11T23:41:54.362Z,13.43
2022-12-11T23:44:23.677Z,14.57
2022-12-11T23:46:54.548Z,13.38
2022-12-11T23:49:23.762Z,11.95
2022-12-11T23:51:53.088Z,9.40
2022-12-11T23:54:22.588Z,4.82
2022-12-11T23:56:52.028Z,5.90
2022-12-11T23:59:21.473Z,5.13
